Terminal Aerodrome Forecast
Issued by NWS

Home | Current Version | Previous Version | Text Only | Print | Product List | Glossary On
Versions: 1 2 3 4 5 6 7 8 9 10 11 12 13 14 15 16 17 18 19 20 21 22 23 24 25 26 27 28 29 30 31 32 33 34
000
FTUS45 KCYS 260526
TAFRWL
TAF
KRWL 260526Z 2606/2706 VRB03KT P6SM SCT025 BKN050
      TEMPO 2606/2608 BKN025
     FM260800 24006KT P6SM BKN025 OVC100
     FM261300 24010KT P6SM SCT015 BKN100
     FM261500 25017G25KT P6SM SCT050 BKN100=

USA.gov is the U.S. government's official web portal to all federal, state and local government web resources and services.